createdAt,value
2023-05-19T00:00:15.664Z,24.63
2023-05-19T00:03:29.670Z,32.13
2023-05-19T00:06:43.385Z,37.20
2023-05-19T00:09:44.332Z,29.48
2023-05-19T00:16:05.650Z,28.85
2023-05-19T00:19:39.173Z,27.70
2023-05-19T00:23:08.765Z,27.70
2023-05-19T00:27:36.999Z,25.92
2023-05-19T00:30:04.010Z,27.35
2023-05-19T00:36:40.389Z,28.23
2023-05-19T00:40:06.497Z,27.77
2023-05-19T00:44:03.524Z,27.98
2023-05-19T00:47:49.511Z,28.67
2023-05-19T00:52:26.545Z,24.33
2023-05-19T00:54:11.717Z,22.30
2023-05-19T00:57:22.515Z,30.05
2023-05-19T01:00:32.166Z,30.08
2023-05-19T01:03:56.389Z,30.77
2023-05-19T01:08:05.452Z,28.38
2023-05-19T01:11:26.333Z,30.25
2023-05-19T01:14:28.549Z,27.58
2023-05-19T01:17:44.628Z,28.02
2023-05-19T01:20:49.300Z,31.50
2023-05-19T01:31:22.023Z,35.05
2023-05-19T01:34:49.098Z,26.70
2023-05-19T01:41:24.754Z,36.42
2023-05-19T01:44:43.987Z,36.83
2023-05-19T01:48:02.617Z,32.25
2023-05-19T01:51:31.676Z,38.67
2023-05-19T01:58:18.711Z,39.45
2023-05-19T02:02:07.464Z,37.70
2023-05-19T02:05:55.476Z,39.92
2023-05-19T02:09:35.140Z,44.47
2023-05-19T02:12:51.370Z,37.85
2023-05-19T02:16:00.333Z,45.08
2023-05-19T02:19:05.607Z,35.15
2023-05-19T02:22:20.813Z,39.60
2023-05-19T02:25:34.718Z,41.67
2023-05-19T02:29:04.196Z,39.30
2023-05-19T02:32:30.574Z,39.05
2023-05-19T02:35:56.054Z,39.20
2023-05-19T02:42:35.696Z,36.35
2023-05-19T02:45:56.650Z,33.42
2023-05-19T02:49:23.717Z,32.40
2023-05-19T02:55:46.233Z,32.47
2023-05-19T02:59:34.678Z,38.08
2023-05-19T03:03:01.624Z,32.90
2023-05-19T03:06:19.480Z,31.30
2023-05-19T03:09:49.774Z,34.58
2023-05-19T03:13:08.179Z,34.70
2023-05-19T03:16:52.361Z,31.90
2023-05-19T03:19:54.122Z,29.60
2023-05-19T03:23:08.201Z,34.53
2023-05-19T03:26:46.622Z,30.42
2023-05-19T03:30:28.159Z,33.53
2023-05-19T03:33:59.725Z,28.55
2023-05-19T03:37:11.485Z,29.27
2023-05-19T03:40:26.339Z,34.92
2023-05-19T03:43:34.338Z,34.60
2023-05-19T03:50:40.579Z,30.25
2023-05-19T03:54:14.980Z,34.20
2023-05-19T03:57:30.471Z,36.72
2023-05-19T04:00:45.393Z,38.08
2023-05-19T04:04:26.817Z,34.42
2023-05-19T04:07:31.579Z,27.60
2023-05-19T04:10:54.261Z,31.02
2023-05-19T04:17:23.235Z,34.92
2023-05-19T04:20:34.087Z,28.02
2023-05-19T04:27:20.917Z,33.58
2023-05-19T04:30:41.344Z,27.33
2023-05-19T04:33:43.881Z,25.95
2023-05-19T04:40:26.456Z,25.65
2023-05-19T04:43:44.164Z,26.35
2023-05-19T04:50:24.760Z,20.45
2023-05-19T04:53:42.453Z,23.55
2023-05-19T04:57:17.442Z,24.67
2023-05-19T05:00:28.638Z,21.38
2023-05-19T05:03:33.207Z,27.05
2023-05-19T05:07:23.907Z,20.00
2023-05-19T05:10:33.156Z,20.35
2023-05-19T05:17:43.059Z,17.98
2023-05-19T05:20:55.630Z,13.05
2023-05-19T05:23:57.598Z,17.98
2023-05-19T05:27:15.217Z,15.88
2023-05-19T05:30:48.379Z,15.43
2023-05-19T05:34:36.377Z,11.60
2023-05-19T05:38:01.228Z,11.38
2023-05-19T05:41:14.816Z,11.38
2023-05-19T05:44:27.293Z,10.48
2023-05-19T05:50:46.797Z,9.93
2023-05-19T05:54:06.271Z,10.45
2023-05-19T05:57:25.488Z,8.82
2023-05-19T06:00:50.043Z,10.30
2023-05-19T06:04:06.054Z,10.35
2023-05-19T06:15:21.805Z,14.10
2023-05-19T06:18:29.075Z,12.75
2023-05-19T06:21:35.452Z,10.00
2023-05-19T06:28:36.592Z,12.77
2023-05-19T06:35:29.522Z,5.95
2023-05-19T06:38:43.373Z,6.65
2023-05-19T06:42:02.615Z,6.72
2023-05-19T06:45:20.024Z,7.00
2023-05-19T06:49:02.964Z,12.35
2023-05-19T06:55:50.486Z,8.88
2023-05-19T06:59:12.231Z,9.50
2023-05-19T07:02:23.914Z,9.57
2023-05-19T07:05:36.788Z,10.75
2023-05-19T07:09:21.489Z,11.23
2023-05-19T07:12:45.901Z,9.50
2023-05-19T07:16:42.268Z,8.52
2023-05-19T07:20:36.728Z,8.07
2023-05-19T07:24:36.876Z,9.43
2023-05-19T07:28:31.032Z,10.15
2023-05-19T07:31:40.165Z,10.25
2023-05-19T07:34:54.864Z,10.10
2023-05-19T07:37:57.353Z,10.48
2023-05-19T07:40:45.237Z,11.85
2023-05-19T07:43:49.740Z,9.75
2023-05-19T07:47:24.490Z,14.35
2023-05-19T07:50:47.632Z,14.35
2023-05-19T07:53:43.913Z,14.82
2023-05-19T07:57:08.914Z,9.30
2023-05-19T08:00:09.871Z,7.63
2023-05-19T08:03:36.027Z,6.50
2023-05-19T08:06:45.300Z,7.07
2023-05-19T08:11:09.049Z,7.53
2023-05-19T08:13:47.440Z,7.78
2023-05-19T08:17:05.873Z,8.32
2023-05-19T08:21:00.282Z,6.20
2023-05-19T08:35:02.977Z,12.65
2023-05-19T08:38:20.682Z,8.63
2023-05-19T08:42:31.101Z,7.53
2023-05-19T08:49:19.908Z,9.57
2023-05-19T08:59:26.791Z,7.80
2023-05-19T09:03:00.178Z,9.82
2023-05-19T09:06:54.726Z,9.85
2023-05-19T09:10:00.492Z,6.82
2023-05-19T09:13:30.130Z,7.30
2023-05-19T09:16:46.634Z,9.73
2023-05-19T09:20:06.003Z,6.70
2023-05-19T09:23:06.185Z,6.38
2023-05-19T09:26:40.090Z,7.35
2023-05-19T09:29:41.938Z,6.38
2023-05-19T09:33:02.158Z,3.72
2023-05-19T09:36:31.982Z,7.18
2023-05-19T09:40:32.557Z,6.45
2023-05-19T09:44:09.155Z,6.82
2023-05-19T09:47:19.485Z,7.78
2023-05-19T09:50:43.345Z,5.25
2023-05-19T09:54:12.176Z,5.97
2023-05-19T10:04:33.361Z,6.68
2023-05-19T10:08:10.346Z,4.53
2023-05-19T10:11:14.523Z,5.50
2023-05-19T10:18:14.182Z,2.83
2023-05-19T10:21:39.057Z,3.78
2023-05-19T10:25:20.550Z,5.15
2023-05-19T10:28:43.161Z,3.25
2023-05-19T10:39:01.859Z,2.97
2023-05-19T10:42:38.285Z,3.42
2023-05-19T10:48:43.926Z,6.63
2023-05-19T10:52:43.954Z,2.83
2023-05-19T10:56:24.989Z,8.75
2023-05-19T11:00:01.684Z,6.03
2023-05-19T11:03:15.616Z,3.88
2023-05-19T11:06:39.996Z,2.63
2023-05-19T11:13:18.370Z,5.57
2023-05-19T11:17:11.485Z,3.78
2023-05-19T11:20:17.918Z,4.40
2023-05-19T11:27:27.845Z,2.67
2023-05-19T11:30:42.030Z,4.60
2023-05-19T11:33:45.489Z,4.75
2023-05-19T11:37:02.950Z,9.45
2023-05-19T11:40:23.275Z,4.50
2023-05-19T11:43:57.602Z,5.90
2023-05-19T11:47:41.984Z,3.17
2023-05-19T11:51:42.208Z,3.33
2023-05-19T11:55:28.958Z,1.00
2023-05-19T11:58:43.566Z,2.10
2023-05-19T12:01:53.347Z,2.85
2023-05-19T12:05:13.500Z,2.53
2023-05-19T12:12:49.685Z,3.60
2023-05-19T12:16:05.915Z,5.15
2023-05-19T12:19:42.065Z,8.65
2023-05-19T12:23:06.953Z,4.70
2023-05-19T12:26:40.453Z,6.28
2023-05-19T12:34:29.580Z,4.95
2023-05-19T12:37:52.253Z,4.50
2023-05-19T12:50:51.359Z,4.43
2023-05-19T12:54:17.579Z,4.57
2023-05-19T13:00:37.262Z,6.13
2023-05-19T13:03:37.389Z,4.18
2023-05-19T13:06:51.915Z,4.15
2023-05-19T13:09:57.123Z,2.40
2023-05-19T13:12:49.374Z,4.05
2023-05-19T13:18:59.577Z,5.63
2023-05-19T13:22:21.097Z,6.38
2023-05-19T13:25:26.144Z,4.00
2023-05-19T13:28:32.405Z,5.60
2023-05-19T13:31:42.815Z,2.83
2023-05-19T13:35:01.486Z,6.97
2023-05-19T13:37:58.189Z,1.70
2023-05-19T13:41:15.933Z,4.80
2023-05-19T13:47:33.658Z,7.35
2023-05-19T13:54:19.189Z,1.95
2023-05-19T13:58:04.301Z,3.92
2023-05-19T14:01:33.041Z,4.00
2023-05-19T14:04:39.877Z,4.72
2023-05-19T14:08:05.619Z,4.45
2023-05-19T14:11:27.356Z,4.35
2023-05-19T14:17:49.427Z,3.97
2023-05-19T14:19:24.126Z,6.38
2023-05-19T14:22:47.257Z,3.88
2023-05-19T14:25:59.742Z,7.07
2023-05-19T14:29:07.204Z,3.88
2023-05-19T14:32:41.103Z,3.35
2023-05-19T14:36:31.855Z,6.43
2023-05-19T14:40:07.861Z,4.70
2023-05-19T14:43:38.586Z,3.03
2023-05-19T14:47:54.679Z,3.63
2023-05-19T14:51:53.591Z,4.82
2023-05-19T14:54:46.801Z,3.58
2023-05-19T14:57:58.009Z,3.88
2023-05-19T15:01:04.607Z,6.53
2023-05-19T15:07:46.003Z,5.93
2023-05-19T15:11:12.833Z,2.15
2023-05-19T15:14:30.622Z,3.67
2023-05-19T15:17:43.303Z,2.60
2023-05-19T15:21:01.776Z,7.82
2023-05-19T15:24:19.200Z,4.00
2023-05-19T15:27:49.537Z,7.05
2023-05-19T15:31:21.456Z,8.23
2023-05-19T15:38:03.280Z,5.20
2023-05-19T15:41:48.828Z,4.95
2023-05-19T15:48:25.716Z,7.88
2023-05-19T15:51:34.798Z,8.45
2023-05-19T15:55:10.090Z,12.90
2023-05-19T15:58:22.617Z,6.68
2023-05-19T16:04:35.906Z,7.35
2023-05-19T16:07:52.797Z,7.85
2023-05-19T16:11:04.612Z,3.13
2023-05-19T16:14:46.092Z,7.63
2023-05-19T16:18:10.521Z,7.35
2023-05-19T16:24:37.190Z,5.20
2023-05-19T16:27:42.770Z,8.38
2023-05-19T16:31:10.729Z,8.60
2023-05-19T16:37:38.060Z,4.63
2023-05-19T16:40:39.115Z,8.00
2023-05-19T16:43:52.972Z,8.13
2023-05-19T16:47:11.801Z,8.95
2023-05-19T16:51:06.914Z,6.45
2023-05-19T16:54:17.885Z,6.15
2023-05-19T16:57:35.232Z,3.95
2023-05-19T17:01:02.205Z,7.28
2023-05-19T17:07:07.080Z,8.95
2023-05-19T17:07:45.496Z,4.15
2023-05-19T17:11:17.891Z,6.72
2023-05-19T17:21:18.525Z,4.82
2023-05-19T17:24:38.676Z,2.40
2023-05-19T17:28:22.674Z,6.60
2023-05-19T17:32:07.540Z,8.43
2023-05-19T17:35:32.739Z,4.95
2023-05-19T17:42:06.022Z,5.35
2023-05-19T17:45:19.688Z,8.52
2023-05-19T17:48:26.810Z,8.35
2023-05-19T18:02:07.618Z,5.60
2023-05-19T18:05:26.578Z,7.82
2023-05-19T18:09:22.401Z,8.85
2023-05-19T18:12:50.692Z,6.18
2023-05-19T18:16:37.717Z,8.35
2023-05-19T18:20:13.493Z,7.65
2023-05-19T18:26:17.966Z,6.25
2023-05-19T18:27:15.725Z,14.85
2023-05-19T18:30:42.530Z,9.90
2023-05-19T18:33:59.307Z,11.68
2023-05-19T18:37:50.215Z,6.10
2023-05-19T18:41:26.368Z,6.93
2023-05-19T18:45:00.291Z,8.98
2023-05-19T18:48:05.246Z,8.02
2023-05-19T18:54:51.469Z,4.65
2023-05-19T18:58:25.591Z,9.30
2023-05-19T19:08:26.770Z,9.93
2023-05-19T19:12:20.405Z,7.82
2023-05-19T19:15:37.065Z,12.40
2023-05-19T19:18:43.548Z,15.23
2023-05-19T19:22:05.761Z,7.65
2023-05-19T19:28:39.015Z,10.73
2023-05-19T19:31:50.720Z,5.63
2023-05-19T19:41:58.801Z,9.63
2023-05-19T19:45:34.470Z,8.70
2023-05-19T19:49:32.635Z,10.85
2023-05-19T19:53:25.845Z,8.82
2023-05-19T19:57:17.820Z,11.23
2023-05-19T20:00:45.399Z,11.98
2023-05-19T20:04:19.696Z,10.07
2023-05-19T20:07:39.002Z,8.73
2023-05-19T20:12:42.223Z,8.57
2023-05-19T20:14:59.784Z,8.95
2023-05-19T20:18:37.761Z,8.15
2023-05-19T20:21:51.670Z,7.03
2023-05-19T20:25:03.947Z,7.80
2023-05-19T20:28:23.179Z,7.57
2023-05-19T20:31:27.221Z,8.20
2023-05-19T20:34:53.699Z,14.02
2023-05-19T20:38:30.850Z,9.48
2023-05-19T20:41:54.755Z,3.90
2023-05-19T20:45:23.413Z,10.77
2023-05-19T20:48:46.220Z,11.57
2023-05-19T20:51:58.990Z,10.25
2023-05-19T20:55:45.537Z,8.85
2023-05-19T21:02:19.031Z,11.02
2023-05-19T21:05:32.794Z,4.72
2023-05-19T21:08:42.574Z,10.77
2023-05-19T21:12:48.510Z,7.47
2023-05-19T21:16:44.020Z,8.60
2023-05-19T21:20:03.255Z,8.23
2023-05-19T21:23:27.031Z,11.70
2023-05-19T21:26:46.915Z,12.98
2023-05-19T21:30:16.542Z,16.15
2023-05-19T21:33:54.316Z,14.63
2023-05-19T21:36:51.006Z,11.18
2023-05-19T21:39:46.582Z,11.07
2023-05-19T21:43:11.020Z,15.23
2023-05-19T21:52:44.304Z,8.88
2023-05-19T21:55:55.842Z,8.13
2023-05-19T21:59:16.320Z,8.55
2023-05-19T22:05:52.979Z,8.90
2023-05-19T22:09:03.593Z,11.30
2023-05-19T22:12:57.778Z,14.30
2023-05-19T22:16:07.800Z,13.18
2023-05-19T22:19:33.335Z,12.57
2023-05-19T22:22:47.075Z,17.98
2023-05-19T22:25:55.862Z,17.33
2023-05-19T22:29:09.414Z,9.15
2023-05-19T22:32:10.140Z,17.35
2023-05-19T22:38:26.987Z,26.95
2023-05-19T22:41:50.117Z,15.30
2023-05-19T22:44:57.774Z,15.98
2023-05-19T22:48:15.000Z,20.02
2023-05-19T22:51:02.383Z,16.45
2023-05-19T22:54:56.465Z,16.80
2023-05-19T22:58:01.983Z,17.13
2023-05-19T23:08:16.857Z,16.73
2023-05-19T23:12:14.382Z,15.32
2023-05-19T23:15:32.116Z,18.38
2023-05-19T23:18:42.804Z,15.68
2023-05-19T23:21:54.770Z,20.88
2023-05-19T23:25:40.595Z,19.30
2023-05-19T23:29:14.327Z,18.25
2023-05-19T23:32:16.029Z,14.82
2023-05-19T23:35:31.761Z,14.55
2023-05-19T23:38:53.535Z,16.00
2023-05-19T23:42:17.955Z,15.88
2023-05-19T23:48:59.540Z,12.93
2023-05-19T23:59:32.403Z,12.70
